Time;durP1;ratioP1;P1;durP2;ratioP2;P2;SDS_P1;SDS_P2;PMS_P1;PMS_P2;Temp;Humidity;BMP_temperature;BMP_pressure;BME280_temperature;BME280_humidity;BME280_pressure;Samples;Min_cycle;Max_cycle;Signal;HPM_P1;HPM_P2
2023/02/24 00:01:58;;;;;;;13.05;1.15;;;4.40;99.90;;;;;;5017105;28;20121;-65
2023/02/24 00:04:24;;;;;;;8.88;1.05;;;4.30;99.90;;;;;;5015166;28;20084;-65
2023/02/24 00:06:50;;;;;;;17.10;1.60;;;4.30;99.90;;;;;;5011839;28;20100;-65
2023/02/24 00:09:19;;;;;;;6.30;0.98;;;4.20;99.90;;;;;;5011615;28;20518;-65
2023/02/24 00:12:09;;;;;;;8.82;1.30;;;4.20;99.90;;;;;;4996742;28;20042;-65
2023/02/24 00:14:38;;;;;;;4.43;0.90;;;4.10;99.90;;;;;;5008585;28;20042;-65
2023/02/24 00:17:06;;;;;;;4.43;1.02;;;4.00;99.90;;;;;;5004749;28;20142;-65
2023/02/24 00:19:32;;;;;;;7.07;1.45;;;3.90;99.90;;;;;;5009485;28;20049;-65
2023/02/24 00:21:59;;;;;;;4.75;0.93;;;3.80;99.90;;;;;;5011216;28;20041;-65
2023/02/24 00:24:26;;;;;;;5.47;1.05;;;3.70;99.90;;;;;;5008434;28;20064;-65
2023/02/24 00:26:59;;;;;;;6.32;0.63;;;3.60;99.90;;;;;;5009654;28;20092;-65
2023/02/24 00:29:27;;;;;;;1.95;1.17;;;3.60;99.90;;;;;;5010085;28;20045;-65
2023/02/24 00:31:58;;;;;;;5.72;1.25;;;3.50;99.90;;;;;;5008293;28;20085;-65
2023/02/24 00:34:34;;;;;;;12.52;1.88;;;3.50;99.90;;;;;;5014496;28;20412;-65
2023/02/24 00:37:01;;;;;;;17.35;2.58;;;3.50;99.90;;;;;;4990491;28;20136;-65
2023/02/24 00:39:32;;;;;;;6.47;1.60;;;3.50;99.90;;;;;;4997849;28;20057;-65
2023/02/24 00:42:03;;;;;;;9.15;1.52;;;3.50;99.90;;;;;;5008618;28;20685;-65
2023/02/24 00:44:52;;;;;;;9.10;1.35;;;3.50;99.90;;;;;;5006319;28;20041;-65
2023/02/24 00:47:18;;;;;;;6.82;1.10;;;3.50;99.90;;;;;;5020904;28;20041;-65
2023/02/24 00:49:44;;;;;;;7.95;1.70;;;3.50;99.90;;;;;;5007728;28;20117;-65
2023/02/24 00:52:19;;;;;;;13.88;1.52;;;3.40;99.90;;;;;;4992056;28;20073;-65
2023/02/24 00:54:47;;;;;;;11.90;1.30;;;3.50;99.90;;;;;;5008264;28;20519;-65
2023/02/24 00:57:16;;;;;;;8.10;1.23;;;3.50;99.90;;;;;;5012135;28;20068;-65
2023/02/24 00:59:46;;;;;;;4.22;1.10;;;3.60;99.90;;;;;;5019903;28;20057;-65
2023/02/24 01:02:12;;;;;;;6.25;0.98;;;3.70;99.90;;;;;;5006877;28;20539;-65
2023/02/24 01:04:38;;;;;;;6.00;1.45;;;3.70;99.90;;;;;;5009207;28;20475;-66
2023/02/24 01:07:09;;;;;;;3.33;0.90;;;3.70;99.90;;;;;;5007938;28;20607;-65
2023/02/24 01:09:36;;;;;;;13.82;2.45;;;3.70;99.90;;;;;;5009353;28;20052;-65
2023/02/24 01:14:52;;;;;;;6.25;1.15;;;3.60;99.90;;;;;;4998496;28;20052;-65
2023/02/24 01:17:19;;;;;;;11.25;1.38;;;3.60;99.90;;;;;;4991866;28;20046;-65
2023/02/24 01:19:47;;;;;;;17.15;1.35;;;3.60;99.90;;;;;;4986864;28;20052;-65
2023/02/24 01:22:18;;;;;;;5.63;1.05;;;3.50;99.90;;;;;;4991654;28;20144;-65
2023/02/24 01:24:45;;;;;;;4.68;0.73;;;3.60;99.90;;;;;;5019589;28;20045;-65
2023/02/24 01:27:12;;;;;;;7.70;1.13;;;3.70;99.90;;;;;;5009222;28;20053;-65
2023/02/24 01:29:38;;;;;;;6.53;1.13;;;3.70;99.90;;;;;;5008530;28;20049;-65
2023/02/24 01:32:20;;;;;;;3.85;0.98;;;3.80;99.90;;;;;;5007817;28;20057;-65
2023/02/24 01:34:46;;;;;;;11.32;1.30;;;3.90;99.90;;;;;;4990807;28;20147;-65
2023/02/24 01:37:15;;;;;;;11.05;1.13;;;3.80;99.90;;;;;;4990606;28;20092;-65
2023/02/24 01:39:42;;;;;;;15.98;1.42;;;3.90;99.90;;;;;;5009036;28;20045;-65
2023/02/24 01:42:15;;;;;;;11.10;1.67;;;3.70;99.90;;;;;;4990002;28;20042;-65
2023/02/24 01:44:42;;;;;;;7.05;1.05;;;3.70;99.90;;;;;;5008676;28;20046;-65
2023/02/24 01:47:08;;;;;;;12.77;1.30;;;3.60;99.90;;;;;;5017841;28;20500;-65
2023/02/24 01:49:42;;;;;;;7.55;1.15;;;3.50;99.90;;;;;;4999788;28;20048;-65
2023/02/24 01:52:14;;;;;;;10.32;1.90;;;3.50;99.90;;;;;;5011038;28;20060;-65
2023/02/24 01:54:45;;;;;;;3.47;0.90;;;3.40;99.90;;;;;;5007138;28;20050;-65
2023/02/24 01:57:15;;;;;;;14.95;1.85;;;3.30;99.90;;;;;;4990775;28;20053;-65
2023/02/24 01:59:42;;;;;;;;;;;3.30;99.90;;;;;;5008388;28;20383;-65
2023/02/24 02:02:08;;;;;;;10.88;1.27;;;3.30;99.90;;;;;;4998507;28;20011;-65
2023/02/24 02:04:49;;;;;;;13.88;1.23;;;3.20;99.90;;;;;;4991071;28;20454;-65
2023/02/24 02:07:18;;;;;;;5.68;1.33;;;3.30;99.90;;;;;;5006279;28;20071;-65
2023/02/24 02:09:46;;;;;;;10.73;1.30;;;3.30;99.90;;;;;;5010484;28;20405;-65
2023/02/24 02:12:12;;;;;;;8.35;1.13;;;3.20;99.90;;;;;;4988891;28;20168;-65
2023/02/24 02:14:46;;;;;;;8.70;1.05;;;3.30;99.90;;;;;;5008380;28;20062;-65
2023/02/24 02:17:44;;;;;;;7.63;1.05;;;3.30;99.90;;;;;;5007312;28;20048;-65
2023/02/24 02:20:31;;;;;;;11.48;1.10;;;3.30;99.90;;;;;;5013673;28;20052;-65
2023/02/24 02:23:15;;;;;;;14.68;1.73;;;3.30;99.90;;;;;;5011579;28;20045;-65
2023/02/24 02:25:56;;;;;;;8.00;1.23;;;3.40;99.90;;;;;;4997911;28;20507;-65
2023/02/24 02:28:39;;;;;;;7.25;1.20;;;3.30;99.90;;;;;;5008770;28;20104;-65
2023/02/24 02:31:16;;;;;;;6.40;1.33;;;3.30;99.90;;;;;;4992761;28;20084;-65
2023/02/24 02:34:14;;;;;;;8.63;1.42;;;3.40;99.90;;;;;;5006466;28;20049;-65
2023/02/24 02:36:47;;;;;;;12.32;1.20;;;3.40;99.90;;;;;;4981161;28;20515;-65
2023/02/24 02:39:25;;;;;;;6.15;1.58;;;3.40;99.90;;;;;;5026817;28;20037;-65
2023/02/24 02:42:13;;;;;;;9.88;1.30;;;3.40;99.90;;;;;;5022398;28;20495;-65
2023/02/24 02:44:54;;;;;;;9.18;1.40;;;3.40;99.90;;;;;;4980586;28;20046;-65
2023/02/24 02:47:29;;;;;;;9.52;1.30;;;3.40;99.90;;;;;;5026523;28;20095;-65
2023/02/24 02:50:00;;;;;;;6.70;1.20;;;3.40;99.90;;;;;;5023480;28;20403;-65
2023/02/24 02:52:41;;;;;;;6.40;0.88;;;3.50;99.90;;;;;;5021793;28;20084;-65
2023/02/24 02:55:14;;;;;;;6.03;1.15;;;3.50;99.90;;;;;;4992131;28;20057;-65
2023/02/24 02:57:46;;;;;;;16.50;1.77;;;3.50;99.90;;;;;;5008757;28;20044;-65
2023/02/24 03:00:28;;;;;;;12.23;1.33;;;3.60;99.90;;;;;;5007496;28;20057;-65
2023/02/24 03:03:11;;;;;;;12.82;1.70;;;3.60;99.90;;;;;;5004714;28;20510;-65
2023/02/24 03:05:45;;;;;;;18.60;1.50;;;3.60;99.90;;;;;;5006482;28;20498;-65
2023/02/24 03:08:20;;;;;;;14.07;1.02;;;3.60;99.90;;;;;;5017384;28;20045;-65
2023/02/24 03:10:50;;;;;;;7.10;1.08;;;3.60;99.90;;;;;;5013630;28;20029;-65
2023/02/24 03:13:21;;;;;;;;;;;3.50;99.90;;;;;;5007107;28;20443;-65
2023/02/24 03:15:50;;;;;;;15.75;1.42;;;3.50;99.90;;;;;;4972874;28;19925;-65
2023/02/24 03:18:27;;;;;;;10.05;1.20;;;3.50;99.90;;;;;;4989676;28;20046;-65
2023/02/24 03:21:03;;;;;;;5.40;1.67;;;3.50;99.90;;;;;;5006113;28;20046;-65
2023/02/24 03:23:32;;;;;;;8.15;1.35;;;3.50;99.90;;;;;;4998059;28;20431;-65
2023/02/24 03:26:20;;;;;;;8.20;1.45;;;3.50;99.90;;;;;;5011321;28;20145;-65
2023/02/24 03:29:10;;;;;;;10.65;1.67;;;3.50;99.90;;;;;;5006803;28;20085;-65
2023/02/24 03:32:02;;;;;;;8.40;1.20;;;3.50;99.90;;;;;;4968146;28;20072;-65
2023/02/24 03:34:54;;;;;;;4.90;1.00;;;3.50;99.90;;;;;;5011397;28;20046;-65
2023/02/24 03:37:26;;;;;;;9.95;1.02;;;3.50;99.90;;;;;;4994942;28;20065;-65
2023/02/24 03:40:10;;;;;;;12.35;1.10;;;3.50;99.90;;;;;;5007518;28;20480;-65
2023/02/24 03:42:38;;;;;;;15.38;1.67;;;3.50;99.90;;;;;;4993047;28;20045;-65
2023/02/24 03:45:05;;;;;;;8.88;2.10;;;3.50;99.90;;;;;;4991993;28;20042;-65
2023/02/24 03:47:31;;;;;;;8.98;1.02;;;3.60;99.90;;;;;;4992422;28;20369;-65
2023/02/24 03:49:57;;;;;;;11.35;2.38;;;3.60;99.90;;;;;;4992588;28;20049;-65
2023/02/24 03:52:48;;;;;;;10.82;1.88;;;3.60;99.90;;;;;;5003841;28;20095;-65
2023/02/24 03:55:57;;;;;;;16.63;1.63;;;3.60;99.90;;;;;;5009013;28;20095;-65
2023/02/24 03:58:53;;;;;;;11.25;1.42;;;3.60;99.90;;;;;;5010186;28;20496;-65
2023/02/24 04:01:56;;;;;;;5.57;1.02;;;3.70;99.90;;;;;;5016879;28;20049;-65
2023/02/24 04:04:22;;;;;;;16.65;1.45;;;3.70;99.90;;;;;;4978834;28;20057;-65
2023/02/24 04:07:05;;;;;;;14.45;1.65;;;3.70;99.90;;;;;;4997893;28;20083;-65
2023/02/24 04:09:55;;;;;;;2.63;0.80;;;3.70;99.90;;;;;;5008680;28;20521;-65
2023/02/24 04:12:41;;;;;;;4.00;1.00;;;3.70;99.90;;;;;;4990899;28;20540;-65
2023/02/24 04:15:19;;;;;;;7.25;1.02;;;3.80;99.90;;;;;;5010109;28;20100;-65
2023/02/24 04:17:53;;;;;;;10.02;1.27;;;3.80;99.90;;;;;;4988677;28;20053;-65
2023/02/24 04:20:23;;;;;;;9.27;1.38;;;3.80;99.90;;;;;;5001704;28;20115;-65
2023/02/24 04:22:58;;;;;;;5.80;0.85;;;3.80;99.90;;;;;;4995134;28;20092;-65
2023/02/24 04:25:25;;;;;;;11.27;1.27;;;3.80;99.90;;;;;;5006779;28;20069;-65
2023/02/24 04:27:57;;;;;;;10.95;0.90;;;3.80;99.90;;;;;;5010321;28;20076;-65
2023/02/24 04:30:28;;;;;;;10.15;1.17;;;3.90;99.90;;;;;;5008165;28;20074;-65
2023/02/24 04:32:55;;;;;;;6.15;1.08;;;3.90;99.90;;;;;;5024302;28;20163;-65
2023/02/24 04:35:21;;;;;;;16.65;1.50;;;3.90;99.90;;;;;;5020679;28;20045;-65
2023/02/24 04:37:49;;;;;;;9.25;1.23;;;3.90;99.90;;;;;;4991337;28;20050;-65
2023/02/24 04:40:20;;;;;;;8.10;1.45;;;3.90;99.90;;;;;;5009600;28;20496;-65
2023/02/24 04:42:47;;;;;;;10.82;1.63;;;3.90;99.90;;;;;;5017313;28;20521;-65
2023/02/24 04:45:32;;;;;;;5.90;1.25;;;4.00;99.90;;;;;;5009922;28;20088;-66
2023/02/24 04:48:02;;;;;;;7.57;1.23;;;3.90;99.90;;;;;;5008589;28;20103;-65
2023/02/24 04:50:31;;;;;;;6.68;0.88;;;4.00;99.90;;;;;;5008931;28;20045;-65
2023/02/24 04:53:00;;;;;;;12.43;2.47;;;4.00;99.90;;;;;;5011037;28;20045;-65
2023/02/24 04:55:33;;;;;;;15.75;1.40;;;3.90;99.90;;;;;;5007125;28;20037;-65
2023/02/24 04:58:00;;;;;;;7.38;1.30;;;4.00;99.90;;;;;;5009785;28;20041;-65
2023/02/24 05:00:32;;;;;;;7.82;0.90;;;4.00;99.90;;;;;;5006902;28;20064;-65
2023/02/24 05:03:00;;;;;;;7.88;1.27;;;4.00;99.90;;;;;;5011071;28;20049;-65
2023/02/24 05:05:26;;;;;;;18.75;1.90;;;4.00;99.90;;;;;;5007983;28;20081;-65
2023/02/24 05:08:01;;;;;;;7.45;1.05;;;4.00;99.90;;;;;;5008829;28;20038;-65
2023/02/24 05:10:29;;;;;;;6.43;1.23;;;4.00;99.90;;;;;;4991135;28;20053;-65
2023/02/24 05:12:57;;;;;;;10.98;1.40;;;4.10;99.90;;;;;;5007996;28;20038;-65
2023/02/24 05:15:29;;;;;;;9.18;1.40;;;4.00;99.90;;;;;;4996002;28;20045;-66
2023/02/24 05:18:07;;;;;;;3.92;0.60;;;4.00;99.90;;;;;;4990718;28;20045;-65
2023/02/24 05:23:43;;;;;;;11.45;1.20;;;4.00;99.90;;;;;;5008694;28;20140;-65
2023/02/24 05:26:14;;;;;;;11.32;1.30;;;4.00;99.90;;;;;;4993336;28;20057;-65
2023/02/24 05:28:41;;;;;;;7.00;1.10;;;4.10;99.90;;;;;;5009198;28;20056;-65
2023/02/24 05:31:09;;;;;;;5.97;1.17;;;4.10;99.90;;;;;;5007987;28;20075;-65
2023/02/24 05:33:47;;;;;;;11.02;1.35;;;4.10;99.90;;;;;;4999017;28;20575;-65
2023/02/24 05:36:16;;;;;;;14.10;1.38;;;4.10;99.90;;;;;;5021373;28;20049;-65
2023/02/24 05:38:43;;;;;;;9.57;1.65;;;4.00;99.90;;;;;;5014853;28;20116;-65
2023/02/24 05:41:19;;;;;;;12.45;1.75;;;4.00;99.90;;;;;;5015239;28;20097;-65
2023/02/24 05:43:47;;;;;;;11.15;1.35;;;4.00;99.90;;;;;;5007224;28;20048;-65
2023/02/24 05:46:15;;;;;;;13.02;2.30;;;4.00;99.90;;;;;;5009571;28;20056;-65
2023/02/24 05:48:42;;;;;;;13.82;2.10;;;4.00;99.90;;;;;;5007958;28;20188;-65
2023/02/24 05:51:11;;;;;;;10.90;1.30;;;4.10;99.90;;;;;;5007707;28;20065;-65
2023/02/24 05:53:41;;;;;;;4.60;2.50;;;4.10;99.90;;;;;;4990707;28;20054;-66
2023/02/24 05:56:07;;;;;;;6.30;1.10;;;4.00;99.90;;;;;;5007298;28;20050;-65
2023/02/24 05:58:33;;;;;;;10.75;1.73;;;4.00;99.90;;;;;;5008012;28;20349;-66
2023/02/24 06:01:05;;;;;;;15.35;1.92;;;4.10;99.90;;;;;;5007107;28;20128;-65
2023/02/24 06:03:34;;;;;;;9.85;1.20;;;4.00;99.90;;;;;;5008142;28;20491;-65
2023/02/24 06:06:08;;;;;;;13.55;1.85;;;4.00;99.90;;;;;;5009137;28;20076;-65
2023/02/24 06:08:41;;;;;;;12.18;1.52;;;4.00;99.90;;;;;;5006346;28;20061;-66
2023/02/24 06:11:11;;;;;;;10.50;1.15;;;4.00;99.90;;;;;;4975765;28;20090;-66
2023/02/24 06:13:37;;;;;;;12.05;1.35;;;4.00;99.90;;;;;;5006261;28;20097;-66
2023/02/24 06:16:05;;;;;;;10.25;0.98;;;4.00;99.90;;;;;;5008679;28;20185;-66
2023/02/24 06:18:31;;;;;;;14.55;1.77;;;4.00;99.90;;;;;;5014130;28;20038;-66
2023/02/24 06:21:01;;;;;;;7.95;1.23;;;4.00;99.90;;;;;;5009200;28;20056;-66
2023/02/24 06:23:27;;;;;;;8.95;1.40;;;4.00;99.90;;;;;;5019170;28;20041;-67
2023/02/24 06:25:56;;;;;;;11.30;1.23;;;4.00;99.90;;;;;;5007240;28;20073;-67
2023/02/24 06:28:25;;;;;;;7.32;1.40;;;4.00;99.90;;;;;;4983075;28;20379;-67
2023/02/24 06:30:51;;;;;;;14.27;1.88;;;4.00;99.90;;;;;;5008758;28;20050;-67
2023/02/24 06:33:17;;;;;;;10.52;1.67;;;4.10;99.90;;;;;;5009120;28;20121;-67
2023/02/24 06:35:43;;;;;;;18.50;1.67;;;4.00;99.90;;;;;;5006875;28;20057;-67
2023/02/24 06:38:09;;;;;;;10.15;1.60;;;4.10;99.90;;;;;;5011229;28;20404;-67
2023/02/24 06:40:36;;;;;;;9.52;1.27;;;4.10;99.90;;;;;;5008902;28;20045;-67
2023/02/24 06:43:02;;;;;;;13.80;1.75;;;4.10;99.90;;;;;;5011541;28;20053;-67
2023/02/24 06:45:29;;;;;;;8.95;1.50;;;4.10;99.90;;;;;;5007578;28;20050;-67
2023/02/24 06:47:55;;;;;;;13.10;1.27;;;4.10;99.90;;;;;;4990100;28;20077;-67
2023/02/24 06:50:22;;;;;;;4.10;0.80;;;4.10;99.90;;;;;;4990543;28;20484;-67
2023/02/24 06:52:48;;;;;;;13.55;1.60;;;4.10;99.90;;;;;;5006272;28;20632;-67
2023/02/24 06:55:24;;;;;;;8.60;1.45;;;4.10;99.90;;;;;;5011309;28;20059;-67
2023/02/24 06:57:58;;;;;;;10.63;1.75;;;4.10;99.90;;;;;;5016000;28;20381;-67
2023/02/24 07:00:37;;;;;;;8.98;2.50;;;4.20;99.90;;;;;;5020418;28;20068;-67
2023/02/24 07:03:15;;;;;;;3.40;1.53;;;4.10;99.90;;;;;;5009587;28;20034;-67
2023/02/24 07:05:49;;;;;;;6.63;1.20;;;4.10;99.90;;;;;;4988285;28;20630;-67
2023/02/24 07:08:16;;;;;;;8.43;1.35;;;4.20;99.90;;;;;;5007891;28;20496;-68
2023/02/24 07:10:42;;;;;;;9.15;1.70;;;4.20;99.90;;;;;;5015107;28;20076;-67
2023/02/24 07:13:08;;;;;;;13.02;2.53;;;4.20;99.90;;;;;;5007222;28;20042;-68
2023/02/24 07:15:35;;;;;;;10.07;1.65;;;4.20;99.90;;;;;;4990057;28;20401;-67
2023/02/24 07:18:03;;;;;;;1.88;0.52;;;4.20;99.90;;;;;;5006318;28;20110;-67
2023/02/24 07:20:29;;;;;;;16.17;2.75;;;4.20;99.90;;;;;;5012000;28;20519;-68
2023/02/24 07:22:55;;;;;;;11.23;2.63;;;4.30;99.90;;;;;;5011905;28;20050;-68
2023/02/24 07:25:32;;;;;;;12.82;1.77;;;4.30;99.90;;;;;;4993739;28;20080;-68
2023/02/24 07:28:01;;;;;;;7.45;1.80;;;4.30;99.90;;;;;;4981897;28;20052;-67
2023/02/24 07:30:32;;;;;;;18.08;1.92;;;4.30;99.90;;;;;;4992487;28;20400;-69
2023/02/24 07:32:59;;;;;;;8.25;1.52;;;4.30;99.90;;;;;;4978363;28;20077;-69
2023/02/24 07:35:25;;;;;;;9.98;1.88;;;4.30;99.90;;;;;;5009378;28;20042;-69
2023/02/24 07:37:51;;;;;;;8.00;1.98;;;4.40;99.90;;;;;;5013725;28;20153;-69
2023/02/24 07:40:20;;;;;;;14.45;2.63;;;4.40;99.90;;;;;;5009613;28;20124;-69
2023/02/24 07:42:47;;;;;;;11.18;1.77;;;4.40;99.90;;;;;;4993281;28;20073;-69
2023/02/24 07:45:13;;;;;;;17.95;2.65;;;4.40;99.90;;;;;;4992412;28;20056;-69
2023/02/24 07:47:39;;;;;;;8.73;1.67;;;4.50;99.90;;;;;;4991966;28;20129;-68
2023/02/24 07:50:12;;;;;;;7.05;1.40;;;4.50;99.90;;;;;;4995366;28;20491;-69
2023/02/24 07:52:38;;;;;;;10.02;2.17;;;4.50;99.90;;;;;;5009498;28;20042;-68
2023/02/24 07:55:05;;;;;;;4.18;0.95;;;4.50;99.90;;;;;;5015416;28;20038;-68
2023/02/24 07:57:32;;;;;;;16.10;2.88;;;4.60;99.90;;;;;;5018782;28;20084;-69
2023/02/24 07:59:58;;;;;;;12.32;1.52;;;4.60;99.90;;;;;;5016028;28;20107;-67
2023/02/24 08:02:25;;;;;;;16.65;2.58;;;4.60;99.90;;;;;;5001728;28;20109;-67
2023/02/24 08:04:51;;;;;;;9.18;1.77;;;4.60;99.90;;;;;;5001549;28;20041;-67
2023/02/24 08:07:22;;;;;;;5.10;1.52;;;4.60;99.90;;;;;;4994883;28;20175;-67
2023/02/24 08:12:34;;;;;;;9.27;2.17;;;4.70;99.90;;;;;;5003806;28;20050;-67
2023/02/24 08:15:07;;;;;;;16.88;1.85;;;4.70;99.90;;;;;;5011930;28;20034;-66
2023/02/24 08:17:33;;;;;;;6.32;1.30;;;4.70;99.90;;;;;;5014309;28;20041;-67
2023/02/24 08:22:42;;;;;;;18.55;3.10;;;4.80;99.90;;;;;;5007466;28;20061;-67
2023/02/24 08:25:09;;;;;;;8.57;2.67;;;4.90;99.90;;;;;;5011897;28;20061;-66
2023/02/24 08:27:39;;;;;;;12.25;1.58;;;4.80;99.90;;;;;;4990513;28;20053;-67
2023/02/24 08:30:06;;;;;;;;;;;4.80;99.90;;;;;;5012186;28;20038;-66
2023/02/24 08:32:42;;;;;;;5.65;2.00;;;4.80;99.90;;;;;;4987002;28;20013;-67
2023/02/24 08:35:15;;;;;;;2.97;0.75;;;4.90;99.90;;;;;;5005380;28;20041;-66
2023/02/24 08:37:46;;;;;;;12.68;2.30;;;4.90;99.90;;;;;;5021790;28;20042;-67
2023/02/24 08:40:38;;;;;;;7.88;2.17;;;4.90;99.90;;;;;;4990817;28;20132;-67
2023/02/24 08:43:15;;;;;;;10.38;2.13;;;4.90;99.90;;;;;;5023295;28;20129;-69
2023/02/24 08:45:55;;;;;;;8.52;1.17;;;5.00;99.90;;;;;;5026755;28;20115;-69
2023/02/24 08:48:36;;;;;;;2.35;0.80;;;5.00;99.90;;;;;;5011305;28;20038;-68
2023/02/24 08:51:10;;;;;;;3.88;1.05;;;5.00;99.90;;;;;;5008497;28;20136;-69
2023/02/24 08:53:39;;;;;;;11.32;1.70;;;5.10;99.90;;;;;;5010101;28;20041;-68
2023/02/24 08:56:10;;;;;;;1.88;0.88;;;5.10;99.90;;;;;;5008956;28;20473;-68
2023/02/24 08:58:45;;;;;;;5.05;2.15;;;5.10;99.90;;;;;;4992993;28;20050;-68
2023/02/24 09:01:22;;;;;;;1.30;0.75;;;5.10;99.90;;;;;;4981492;28;20080;-69
2023/02/24 09:03:51;;;;;;;7.65;1.50;;;5.10;99.90;;;;;;5006364;28;20095;-68
2023/02/24 09:06:24;;;;;;;17.52;3.28;;;5.20;99.90;;;;;;5005483;28;20116;-68
2023/02/24 09:11:42;;;;;;;10.95;1.65;;;5.20;99.90;;;;;;5019095;28;20054;-68
2023/02/24 09:14:16;;;;;;;13.30;2.42;;;5.20;99.90;;;;;;4991964;28;20084;-68
2023/02/24 09:17:00;;;;;;;9.98;2.13;;;5.30;99.90;;;;;;4997228;28;20034;-67
2023/02/24 09:22:31;;;;;;;4.20;1.58;;;5.40;99.90;;;;;;5021682;28;20045;-67
2023/02/24 09:25:17;;;;;;;2.47;0.63;;;5.40;99.90;;;;;;4996881;28;20084;-67
2023/02/24 09:28:08;;;;;;;8.75;1.33;;;5.50;99.90;;;;;;5018939;28;20037;-67
2023/02/24 09:30:54;;;;;;;0.60;0.60;;;5.50;99.90;;;;;;4992253;28;20049;-67
2023/02/24 09:33:23;;;;;;;5.20;1.17;;;5.60;99.90;;;;;;5003870;28;20053;-67
2023/02/24 09:36:08;;;;;;;1.85;0.73;;;5.60;99.90;;;;;;5013254;28;20042;-68
2023/02/24 09:39:08;;;;;;;6.43;1.30;;;5.60;99.90;;;;;;5014538;28;20037;-68
2023/02/24 09:42:27;;;;;;;8.88;1.88;;;5.70;99.90;;;;;;5008164;28;20041;-67
2023/02/24 09:44:54;;;;;;;4.47;0.95;;;5.70;99.90;;;;;;4998290;28;20060;-67
2023/02/24 09:47:50;;;;;;;7.43;2.05;;;5.70;99.90;;;;;;5015755;28;20038;-67
2023/02/24 09:50:29;;;;;;;6.90;2.88;;;5.70;99.90;;;;;;5015288;28;20129;-67
2023/02/24 09:53:12;;;;;;;8.98;3.38;;;5.80;99.90;;;;;;4996595;28;20128;-67
2023/02/24 09:55:58;;;;;;;11.13;4.22;;;5.80;99.90;;;;;;4994169;28;20054;-68
2023/02/24 09:58:37;;;;;;;11.68;3.88;;;5.80;99.90;;;;;;5014020;28;20053;-67
2023/02/24 10:01:31;;;;;;;37.75;20.00;;;6.00;99.90;;;;;;5009400;28;20073;-68
2023/02/24 10:04:21;;;;;;;92.70;46.10;;;6.10;99.90;;;;;;4997255;28;20396;-68
2023/02/24 10:06:54;;;;;;;9.20;3.95;;;6.20;99.90;;;;;;5012968;28;20046;-68
2023/02/24 10:09:32;;;;;;;20.95;6.22;;;6.30;99.90;;;;;;5008883;28;20034;-68
2023/02/24 10:12:15;;;;;;;48.42;15.30;;;6.50;99.90;;;;;;4998840;28;20056;-67
2023/02/24 10:15:43;;;;;;;41.35;9.45;;;6.70;99.90;;;;;;5010571;28;20042;-68
2023/02/24 10:18:42;;;;;;;61.75;20.70;;;6.90;99.90;;;;;;5009801;28;20052;-68
2023/02/24 10:21:29;;;;;;;48.20;10.52;;;7.10;99.90;;;;;;4993775;28;20096;-67
2023/02/24 10:24:13;;;;;;;72.85;18.42;;;7.40;99.90;;;;;;4993905;28;20058;-68
2023/02/24 10:27:00;;;;;;;91.20;22.92;;;7.60;99.90;;;;;;5016852;28;20057;-67
2023/02/24 10:29:44;;;;;;;85.22;16.15;;;7.70;99.90;;;;;;5007678;28;20473;-67
2023/02/24 10:32:32;;;;;;;83.00;17.00;;;7.60;99.90;;;;;;5009658;28;20049;-67
2023/02/24 10:35:00;;;;;;;70.32;12.52;;;7.60;99.90;;;;;;5010793;28;20085;-67
2023/02/24 10:37:27;;;;;;;45.00;6.07;;;7.50;99.90;;;;;;4978696;28;20049;-68
2023/02/24 10:40:08;;;;;;;33.60;6.68;;;7.40;99.90;;;;;;5007285;28;20132;-67
2023/02/24 10:42:36;;;;;;;41.92;7.75;;;7.20;99.90;;;;;;4993325;28;20133;-67
2023/02/24 10:45:15;;;;;;;55.90;11.18;;;7.10;99.90;;;;;;5007095;28;20037;-67
2023/02/24 10:47:48;;;;;;;55.15;8.85;;;7.10;99.90;;;;;;5014581;28;20038;-68
2023/02/24 10:50:26;;;;;;;49.45;8.60;;;7.20;99.90;;;;;;5010564;28;20050;-67
2023/02/24 11:05:15;;;;;;;61.33;9.98;;;8.00;99.90;;;;;;4996550;28;20046;-67
2023/02/24 11:07:23;;;;;;;56.72;8.57;;;7.90;99.90;;;;;;4999994;28;20457;-67
2023/02/24 11:10:24;;;;;;;84.63;12.23;;;8.00;99.90;;;;;;5005065;28;20081;-68
2023/02/24 11:18:29;;;;;;;67.18;9.60;;;8.00;99.90;;;;;;5016077;28;20050;-68
2023/02/24 11:21:03;;;;;;;54.70;7.18;;;8.10;99.90;;;;;;4999797;28;20049;-68
2023/02/24 11:23:37;;;;;;;53.05;10.77;;;8.00;99.90;;;;;;5014892;28;20037;-67
2023/02/24 11:26:18;;;;;;;51.42;8.77;;;8.20;99.90;;;;;;5010766;28;20510;-67
2023/02/24 11:28:49;;;;;;;63.05;11.68;;;8.30;99.90;;;;;;5016974;28;20484;-67
2023/02/24 11:31:37;;;;;;;;;;;8.40;99.90;;;;;;5017341;28;20052;-67
2023/02/24 11:34:40;;;;;;;37.85;7.70;;;8.50;99.90;;;;;;5006404;28;19972;-67
2023/02/24 11:37:36;;;;;;;30.70;7.10;;;8.30;99.90;;;;;;4995304;28;21501;-67
2023/02/24 11:40:25;;;;;;;22.92;4.00;;;7.90;99.90;;;;;;5012317;28;20053;-67
2023/02/24 11:42:57;;;;;;;33.40;4.85;;;7.80;99.90;;;;;;4993437;28;20046;-68
2023/02/24 11:45:36;;;;;;;39.53;7.38;;;7.80;99.90;;;;;;5015352;28;20821;-67
2023/02/24 11:48:04;;;;;;;55.08;9.70;;;8.00;99.90;;;;;;5016426;28;20045;-68
2023/02/24 11:50:48;;;;;;;50.63;10.00;;;8.20;99.90;;;;;;5012892;28;20045;-67
2023/02/24 11:53:22;;;;;;;51.10;8.57;;;8.20;99.90;;;;;;5011523;28;20046;-67
2023/02/24 11:55:57;;;;;;;56.10;10.00;;;8.40;99.90;;;;;;4992860;28;20422;-67
2023/02/24 11:58:43;;;;;;;64.07;11.75;;;8.40;99.90;;;;;;5010199;28;20034;-67
2023/02/24 12:01:39;;;;;;;57.15;10.43;;;8.60;99.90;;;;;;5015058;28;20053;-67
2023/02/24 12:04:23;;;;;;;59.83;11.55;;;8.70;99.90;;;;;;4992668;28;20472;-67
2023/02/24 12:07:08;;;;;;;48.65;9.10;;;8.80;99.90;;;;;;5010657;28;20471;-67
2023/02/24 12:09:43;;;;;;;51.35;7.55;;;9.00;99.90;;;;;;5012536;28;20052;-67
2023/02/24 12:12:40;;;;;;;45.03;9.50;;;9.10;99.90;;;;;;5008069;28;20045;-67
2023/02/24 12:15:18;;;;;;;38.88;6.63;;;9.10;99.90;;;;;;5006080;28;20117;-67
2023/02/24 12:18:12;;;;;;;39.30;9.80;;;8.70;99.90;;;;;;5012012;28;20499;-67
2023/02/24 12:20:49;;;;;;;34.70;8.30;;;8.20;99.90;;;;;;5012194;28;20049;-67
2023/02/24 12:23:31;;;;;;;34.42;6.75;;;7.80;99.90;;;;;;5018108;28;20038;-67
2023/02/24 12:26:17;;;;;;;41.55;10.00;;;7.60;99.90;;;;;;5010950;28;20056;-67
2023/02/24 12:29:09;;;;;;;30.92;8.23;;;7.50;99.90;;;;;;5008792;28;20511;-67
2023/02/24 12:31:44;;;;;;;27.73;6.20;;;7.40;99.90;;;;;;5005556;28;20450;-67
2023/02/24 12:34:59;;;;;;;32.28;6.93;;;7.50;99.90;;;;;;4994978;28;20446;-67
2023/02/24 12:37:46;;;;;;;33.83;6.55;;;7.60;99.90;;;;;;4940781;28;20062;-67
2023/02/24 12:40:37;;;;;;;32.90;5.65;;;7.70;99.90;;;;;;4984205;28;20045;-67
2023/02/24 12:43:25;;;;;;;26.67;5.70;;;7.80;99.90;;;;;;5015491;28;20042;-67
2023/02/24 12:46:15;;;;;;;27.08;6.53;;;7.80;99.90;;;;;;4992575;28;20049;-67
2023/02/24 12:48:50;;;;;;;23.85;6.78;;;7.70;99.90;;;;;;5008161;28;20059;-67
2023/02/24 12:51:24;;;;;;;29.25;5.10;;;7.70;99.90;;;;;;5003049;28;20447;-67
2023/02/24 12:54:05;;;;;;;26.90;5.03;;;7.90;99.90;;;;;;4991497;28;20053;-67
2023/02/24 12:56:36;;;;;;;24.63;5.28;;;8.20;99.90;;;;;;4994440;28;20572;-67
2023/02/24 12:59:05;;;;;;;14.85;4.07;;;8.40;99.90;;;;;;5014386;28;20033;-67
2023/02/24 13:01:52;;;;;;;11.80;1.92;;;8.50;99.90;;;;;;5012820;28;20052;-67
2023/02/24 13:04:36;;;;;;;6.22;1.40;;;8.50;99.90;;;;;;4994146;28;20045;-67
2023/02/24 13:07:25;;;;;;;6.07;1.20;;;8.30;99.90;;;;;;5015568;28;20052;-67
2023/02/24 13:10:06;;;;;;;10.38;2.38;;;8.30;99.90;;;;;;5011233;28;20053;-67
2023/02/24 13:12:40;;;;;;;11.68;1.77;;;8.50;99.90;;;;;;4989849;28;20085;-67
2023/02/24 13:15:22;;;;;;;13.20;3.00;;;8.50;99.90;;;;;;4994757;28;20149;-65
2023/02/24 13:17:51;;;;;;;17.08;4.28;;;8.40;99.90;;;;;;5011803;28;20391;-65
2023/02/24 13:20:28;;;;;;;18.50;4.20;;;8.20;99.90;;;;;;4986252;28;20439;-65
2023/02/24 13:22:55;;;;;;;8.10;2.10;;;8.20;99.90;;;;;;5011573;28;20087;-65
2023/02/24 13:25:27;;;;;;;14.73;4.30;;;8.30;99.90;;;;;;4995270;28;20061;-65
2023/02/24 13:28:00;;;;;;;15.52;4.03;;;8.20;99.90;;;;;;4993424;28;20046;-65
2023/02/24 13:30:35;;;;;;;9.25;2.17;;;8.20;99.90;;;;;;4992899;28;20054;-65
2023/02/24 13:33:16;;;;;;;14.43;3.92;;;8.10;99.90;;;;;;4997731;28;20055;-65
2023/02/24 13:35:44;;;;;;;11.45;3.95;;;8.00;99.90;;;;;;4992317;28;20108;-65
2023/02/24 13:38:22;;;;;;;12.57;4.05;;;7.90;99.90;;;;;;4987017;28;20105;-65
2023/02/24 13:40:48;;;;;;;17.70;3.35;;;7.80;99.90;;;;;;4993371;28;20054;-65
2023/02/24 13:43:26;;;;;;;19.70;5.47;;;7.60;99.90;;;;;;4988601;28;20444;-65
2023/02/24 13:45:59;;;;;;;15.93;3.88;;;7.50;99.90;;;;;;4998501;28;20446;-65
2023/02/24 13:48:59;;;;;;;20.60;3.75;;;7.60;99.90;;;;;;5000547;28;20422;-65
2023/02/24 13:51:46;;;;;;;18.20;4.00;;;7.60;99.90;;;;;;4989970;28;20073;-65
2023/02/24 13:54:23;;;;;;;12.80;3.28;;;7.50;99.90;;;;;;4988574;28;20416;-65
2023/02/24 13:57:01;;;;;;;14.48;5.22;;;7.30;99.90;;;;;;4988905;28;20181;-65
2023/02/24 13:59:41;;;;;;;19.05;3.80;;;7.20;99.90;;;;;;4985678;28;20149;-65
2023/02/24 14:02:18;;;;;;;18.55;4.15;;;7.20;99.90;;;;;;4994641;28;20128;-65
2023/02/24 14:04:52;;;;;;;17.20;3.40;;;7.10;99.90;;;;;;4987513;28;20064;-65
2023/02/24 14:07:24;;;;;;;19.88;3.25;;;7.20;99.90;;;;;;4989750;28;20072;-66